METAR Data
IDs: Format: Raw Decoded Include TAF

Data at: 0114 UTC 25 Mar 2019

KOTM 250053Z AUTO 03008KT 5SM HZ OVC013 10/07 A3002 RMK AO2 RAE2358 SLP170 P0000 T01000072
KOTM 250023Z AUTO 03006KT 5SM BR OVC013 10/08 A3001 RMK AO2 RAE2358 P0000 T01000078
KOTM 242353Z AUTO 02006KT 4SM -RA BR OVC017 10/08 A3000 RMK AO2 RAB48 SLP162 P0000 60000 T01000078 10128 20100 53013
KOTM 242330Z AUTO 03007KT 5SM HZ OVC015 11/08 A2999 RMK AO2 T01060078
KOTM 242253Z AUTO 03009KT 6SM HZ OVC014 11/08 A2999 RMK AO2 SLP157 T01110083
KOTM 242228Z AUTO 04010KT 7SM BKN014 OVC021 11/08 A2998 RMK AO2 T01110083
KOTM 242202Z AUTO 05008KT 7SM SCT012 OVC023 12/08 A2997 RMK AO2 T01170083
KOTM 242153Z AUTO 05009KT 7SM BKN012 OVC023 12/08 A2997 RMK AO2 SLP152 T01170083
KOTM 242125Z AUTO 04009KT 7SM BKN010 OVC025 12/09 A2997 RMK AO2 CIG 008V013 T01170089
KOTM 242053Z AUTO 05009KT 7SM BKN009 BKN021 OVC027 12/09 A2996 RMK AO2 RAE1959B10E35 CIG 008V012 SLP149 P0000 60000 T01220089 55004
KOTM 242003Z AUTO 05006KT 7SM BKN009 BKN024 OVC060 11/08 A2996 RMK AO2 RAE1959 P0000 T01110083
KOTM 241953Z AUTO 07005KT 6SM -RA BR BKN010 BKN022 OVC060 11/08 A2996 RMK AO2 RAB35 SLP148 P0000 T01060083
KOTM 241948Z AUTO 10005KT 6SM -RA BR SCT010 BKN020 OVC055 11/08 A2997 RMK AO2 RAB35 P0000
KOTM 241925Z AUTO 11005KT 7SM OVC010 11/08 A2997 RMK AO2 T01060083
KOTM 241904Z AUTO 00000KT 7SM BKN009 OVC021 11/08 A2997 RMK AO2 CIG 006V011 T01060078
KOTM 241853Z AUTO VRB03KT 7SM SCT007 BKN011 OVC021 11/08 A2998 RMK AO2 SLP153 T01060078
KOTM 241845Z AUTO 09004KT 7SM BKN007 OVC021 11/09 A2998 RMK AO2 T01110089
KOTM 241818Z AUTO 09007KT 6SM BR SCT009 OVC021 10/08 A2998 RMK AO2 T01000083
KOTM 241753Z AUTO 11003KT 6SM BR OVC008 09/08 A2999 RMK AO2 RAB15E46 CIG 007V012 SLP159 P0000 60000 T00940078 10100 20067 58001
KOTM 241734Z AUTO 13004KT 5SM -RA BR BKN008 OVC021 09/08 A3000 RMK AO2 RAB15 CIG 007V011 P0000 T00940078
KOTM 241653Z AUTO 13006KT 6SM BR FEW007 OVC020 09/08 A3000 RMK AO2 RAE34 SLP161 P0000 T00940078
KOTM 241620Z AUTO 14004KT 5SM -RA BR FEW009 OVC019 09/07 A3001 RMK AO2 P0000 T00940072
KOTM 241553Z AUTO 15006KT 7SM -RA BKN008 OVC019 09/07 A3001 RMK AO2 RAB32 CIG 006V011 SLP164 P0000 T00940072
KOTM 241539Z AUTO 15006KT 7SM -RA BKN008 OVC020 09/07 A3001 RMK AO2 RAB32 CIG 006V010 P0000 T00890072 $
KOTM 241453Z AUTO 12009KT 6SM BR FEW006 OVC021 09/07 A2999 RMK AO2 SLP159 T00890072 58004 $
KOTM 241445Z AUTO 12008KT 6SM BR FEW007 OVC021 09/07 A2999 RMK AO2 T00890072 $
KOTM 241353Z AUTO 12006KT 5SM BR BKN019 OVC024 08/07 A3000 RMK AO2 SLP162 T00780072 /
KOTM 241320Z AUTO 13007KT 4SM BR OVC022 07/07 A3001 RMK AO2 T00720072 $
KOTM 241253Z AUTO 10008KT 2SM BR OVC023 07/07 A3000 RMK AO2 SLP162 T00720072 $
KOTM 241236Z AUTO 10004KT 1 3/4SM BR OVC024 07/ A3001 RMK AO2 T0067 $
KOTM 241229Z AUTO 10006KT 2SM BR OVC024 07/ A3001 RMK AO2 T0067 $
KOTM 241153Z AUTO 10005KT 3SM BR OVC026 07/ A3001 RMK AO2 SLP164 60000 T0067 10083 20067 56006 $
KOTM 241121Z AUTO 11005KT 5SM HZ OVC028 07/ A3001 RMK AO2 T0072 $
KOTM 241053Z AUTO 13005KT 4SM BR BKN032 OVC055 07/06 A3001 RMK AO2 SLP165 T00670061 $
KOTM 240953Z AUTO 13006KT 7SM BKN037 OVC070 07/06 A3001 RMK AO2 RAB35E45 SLP165 P0000 T00670056
KOTM 240853Z AUTO 13006KT 7SM OVC042 07/05 A3003 RMK AO2 RAE29 SLP170 P0000 60000 T00670050 58016
KOTM 240753Z AUTO 14007KT 5SM RA BR SCT036 OVC044 07/04 A3005 RMK AO2 RAE29B48 SLP177 P0000 T00670044
KOTM 240653Z AUTO 16008KT 7SM -RA OVC060 07/03 A3007 RMK AO2 RAB03 SLP183 P0000 T00720033
KOTM 240553Z AUTO 13007KT 10SM OVC060 07/03 A3007 RMK AO2 SLP186 60000 T00720028 10100 20072 401441017 58009
KOTM 240453Z AUTO 12009KT 10SM OVC055 07/03 A3009 RMK AO2 RAE12 SLP190 P0000 T00720028
KOTM 240353Z AUTO 11007KT 10SM -RA FEW050 OVC060 08/03 A3010 RMK AO2 RAB22 SLP195 P0000 T00830028
KOTM 240253Z AUTO 11008KT 10SM OVC075 08/02 A3010 RMK AO2 SLP195 T00830022 55004
KOTM 240153Z AUTO 11008KT 10SM BKN080 OVC095 09/02 A3009 RMK AO2 SLP194 T00890022
KOTM 240053Z AUTO 11007KT 10SM BKN100 09/02 A3010 RMK AO2 SLP199 T00890022
KOTM 232353Z AUTO 11009KT 10SM OVC100 10/02 A3011 RMK AO2 SLP203 T01000017 10144 20100 56012
KOTM 232253Z AUTO 12011KT 10SM BKN100 12/01 A3012 RMK AO2 SLP202 T01170006
KOTM 232153Z AUTO 11012KT 10SM OVC100 13/01 A3013 RMK AO2 SLP206 T01280006
KOTM 232053Z AUTO 12012KT 10SM OVC110 12/01 A3015 RMK AO2 SLP213 T01220011 56016
KOTM 231953Z AUTO 15010KT 10SM CLR 13/00 A3016 RMK AO2 SLP218 T01330000
KOTM 231853Z AUTO 14010KT 10SM CLR 14/01 A3018 RMK AO2 SLP223 T01440011
KOTM 231753Z AUTO 15011KT 10SM CLR 12/00 A3020 RMK AO2 SLP230 T01170000 10122 21011 58013
KOTM 231653Z AUTO 16011G21KT 10SM CLR 11/00 A3021 RMK AO2 SLP234 T01110000
KOTM 231553Z AUTO 15013KT 10SM CLR 10/01 A3023 RMK AO2 SLP240 T01000006
KOTM 231453Z AUTO 15012G19KT 10SM CLR 08/00 A3024 RMK AO2 SLP243 T00780000 50002
KOTM 231353Z AUTO 14007KT 10SM CLR 03/M02 A3024 RMK AO2 SLP247 T00331017